Time;durP1;ratioP1;P1;durP2;ratioP2;P2;SDS_P1;SDS_P2;PMS_P1;PMS_P2;Temp;Humidity;BMP_temperature;BMP_pressure;BME280_temperature;BME280_humidity;BME280_pressure;Samples;Min_cycle;Max_cycle;Signal;HPM_P1;HPM_P2
2022/10/01 00:01:06;;;;;;;15.72;9.23;;;25.20;99.90;;;;;;1834638;76;21123;-85
2022/10/01 00:03:35;;;;;;;15.00;9.40;;;25.20;99.90;;;;;;1812264;77;21147;-85
2022/10/01 00:06:08;;;;;;;16.02;7.67;;;25.20;99.90;;;;;;1830291;76;21076;-85
2022/10/01 00:08:41;;;;;;;14.28;7.80;;;25.20;99.90;;;;;;1816321;76;21171;-84
2022/10/01 00:11:14;;;;;;;12.60;7.55;;;25.30;99.90;;;;;;1834518;77;21087;-84
2022/10/01 00:13:45;;;;;;;11.03;6.50;;;25.20;99.90;;;;;;1822145;78;21272;-85
2022/10/01 00:16:18;;;;;;;13.28;7.00;;;25.30;99.90;;;;;;1825951;77;21143;-84
2022/10/01 00:18:52;;;;;;;11.75;6.95;;;25.20;99.90;;;;;;1862612;76;21130;-84
2022/10/01 00:21:25;;;;;;;16.23;6.97;;;25.30;99.90;;;;;;1827377;77;21155;-82
2022/10/01 00:23:58;;;;;;;16.27;7.20;;;25.30;99.90;;;;;;1817160;78;21143;-83
2022/10/01 00:26:32;;;;;;;11.85;7.05;;;25.30;99.90;;;;;;1734994;80;21099;-82
2022/10/01 00:29:05;;;;;;;13.75;7.60;;;25.30;99.90;;;;;;1839598;76;21134;-82
2022/10/01 00:31:36;;;;;;;14.68;7.85;;;25.30;99.90;;;;;;1819881;77;21127;-75
2022/10/01 00:34:07;;;;;;;15.03;8.23;;;25.30;99.90;;;;;;1810971;78;21128;-74
2022/10/01 00:36:40;;;;;;;16.23;7.17;;;25.30;99.90;;;;;;1812528;77;21744;-74
2022/10/01 00:39:12;;;;;;;13.65;7.62;;;25.40;99.90;;;;;;1822730;78;21127;-73
2022/10/01 00:41:43;;;;;;;10.10;6.80;;;25.40;99.90;;;;;;1776863;80;21151;-74
2022/10/01 00:44:16;;;;;;;10.68;7.12;;;25.40;99.90;;;;;;1777736;79;21236;-74
2022/10/01 00:46:50;;;;;;;11.45;7.33;;;25.50;99.90;;;;;;1813426;77;21653;-74
2022/10/01 00:49:23;;;;;;;15.75;7.30;;;25.50;99.90;;;;;;1828624;76;21124;-73
2022/10/01 00:51:56;;;;;;;12.33;7.03;;;25.50;99.90;;;;;;1829472;77;21084;-75
2022/10/01 00:54:30;;;;;;;12.13;6.83;;;25.50;99.90;;;;;;1820210;77;21741;-73
2022/10/01 00:57:02;;;;;;;9.95;6.70;;;25.50;99.90;;;;;;1851164;75;21172;-72
2022/10/01 00:59:35;;;;;;;11.80;7.15;;;25.50;99.90;;;;;;1832631;76;21299;-73
2022/10/01 01:02:06;;;;;;;11.28;7.40;;;25.60;99.90;;;;;;1824154;77;21123;-74
2022/10/01 01:04:41;;;;;;;12.65;7.00;;;25.60;99.90;;;;;;1825135;77;21322;-75
2022/10/01 01:07:12;;;;;;;16.48;7.65;;;25.60;99.90;;;;;;1864408;75;21676;-75
2022/10/01 01:09:45;;;;;;;11.73;6.45;;;25.60;99.90;;;;;;1868039;75;21781;-75
2022/10/01 01:12:17;;;;;;;11.97;6.90;;;25.70;99.90;;;;;;1834305;76;21084;-74
2022/10/01 01:14:51;;;;;;;14.07;7.47;;;25.70;99.90;;;;;;1824529;76;21208;-73
2022/10/01 01:17:24;;;;;;;14.38;7.20;;;25.80;99.90;;;;;;1820794;78;21256;-74
2022/10/01 01:19:58;;;;;;;13.90;7.53;;;25.80;99.90;;;;;;1793476;78;21086;-74
2022/10/01 01:22:31;;;;;;;12.55;6.55;;;25.80;99.90;;;;;;1783873;79;21146;-74
2022/10/01 01:25:05;;;;;;;12.45;6.22;;;25.80;99.90;;;;;;1782733;79;21602;-74
2022/10/01 01:27:37;;;;;;;10.38;6.20;;;25.90;99.90;;;;;;1797161;79;21657;-74
2022/10/01 01:30:10;;;;;;;9.48;6.25;;;25.90;99.90;;;;;;1817969;77;21553;-74
2022/10/01 01:32:45;;;;;;;14.58;7.17;;;25.90;99.90;;;;;;1836081;78;21584;-73
2022/10/01 01:35:18;;;;;;;15.00;6.75;;;25.90;99.90;;;;;;1801259;78;21180;-73
2022/10/01 01:37:52;;;;;;;13.88;6.67;;;25.90;99.90;;;;;;1851589;76;21223;-73
2022/10/01 01:40:24;;;;;;;13.95;6.95;;;25.90;99.90;;;;;;1839922;76;21900;-73
2022/10/01 01:42:56;;;;;;;11.88;6.25;;;26.00;99.90;;;;;;1806146;78;21191;-73
2022/10/01 01:45:29;;;;;;;11.15;5.85;;;25.90;99.90;;;;;;1853762;76;21092;-74
2022/10/01 01:48:01;;;;;;;11.93;7.28;;;26.00;99.90;;;;;;1816222;77;21088;-74
2022/10/01 01:50:35;;;;;;;12.95;6.15;;;26.00;99.90;;;;;;1771890;79;21637;-74
2022/10/01 01:53:06;;;;;;;10.20;5.97;;;26.00;99.90;;;;;;1841713;75;21210;-74
2022/10/01 01:55:38;;;;;;;10.20;6.05;;;26.10;99.90;;;;;;1819675;76;21135;-74
2022/10/01 01:58:09;;;;;;;10.80;5.67;;;26.10;99.90;;;;;;1829293;76;21493;-73
2022/10/01 02:00:40;;;;;;;11.68;5.92;;;26.10;99.90;;;;;;1833452;76;21666;-73
2022/10/01 02:03:11;;;;;;;9.58;5.70;;;26.10;99.90;;;;;;1808226;78;21183;-73
2022/10/01 02:05:47;;;;;;;9.35;5.40;;;26.20;99.90;;;;;;1832577;76;21784;-75
2022/10/01 02:08:17;;;;;;;9.53;5.70;;;26.20;99.90;;;;;;1833275;76;21537;-76
2022/10/01 02:10:50;;;;;;;10.98;5.80;;;26.30;99.90;;;;;;1839184;76;21170;-74
2022/10/01 02:13:23;;;;;;;9.33;5.55;;;26.30;99.90;;;;;;1819107;77;21155;-75
2022/10/01 02:15:57;;;;;;;8.70;5.70;;;26.40;99.90;;;;;;1803154;79;21144;-75
2022/10/01 02:18:29;;;;;;;10.48;5.10;;;26.40;99.90;;;;;;1825326;78;21210;-75
2022/10/01 02:21:02;;;;;;;9.85;5.87;;;26.60;99.90;;;;;;1745965;80;21603;-75
2022/10/01 02:23:35;;;;;;;11.53;6.85;;;26.60;99.90;;;;;;1822287;76;21174;-74
2022/10/01 02:26:08;;;;;;;11.05;5.58;;;26.70;99.90;;;;;;1825200;77;21201;-76
2022/10/01 02:28:42;;;;;;;11.48;5.97;;;26.70;99.90;;;;;;1824628;77;21754;-76
2022/10/01 02:31:15;;;;;;;9.23;5.65;;;26.70;99.90;;;;;;1829957;78;21294;-76
2022/10/01 02:33:48;;;;;;;9.48;5.40;;;26.70;99.90;;;;;;1798001;79;21253;-76
2022/10/01 02:36:21;;;;;;;9.23;5.50;;;26.80;99.90;;;;;;1824079;76;21197;-76
2022/10/01 02:38:54;;;;;;;14.60;5.53;;;26.80;99.90;;;;;;1798755;78;21831;-76
2022/10/01 02:41:27;;;;;;;10.32;5.37;;;26.80;99.90;;;;;;1824009;78;21218;-76
2022/10/01 02:44:00;;;;;;;9.35;5.37;;;26.90;99.90;;;;;;1816270;76;21657;-76
2022/10/01 02:46:33;;;;;;;7.45;5.03;;;27.10;99.90;;;;;;1832226;77;21140;-76
2022/10/01 02:49:05;;;;;;;8.98;4.83;;;27.20;99.90;;;;;;1824651;76;21608;-76
2022/10/01 02:51:38;;;;;;;8.45;5.47;;;27.40;99.90;;;;;;1823312;77;21131;-76
2022/10/01 02:54:11;;;;;;;9.08;5.22;;;27.50;99.90;;;;;;1834320;76;21115;-75
2022/10/01 02:59:16;;;;;;;6.85;4.90;;;27.60;99.90;;;;;;1833225;77;21158;-76
2022/10/01 03:01:47;;;;;;;12.68;5.78;;;27.60;99.90;;;;;;1831486;77;21120;-76
2022/10/01 03:04:18;;;;;;;9.93;4.70;;;27.50;99.90;;;;;;1838677;76;21634;-75
2022/10/01 03:06:50;;;;;;;5.90;4.65;;;27.40;99.90;;;;;;1833814;76;21600;-76
2022/10/01 03:09:20;;;;;;;8.05;5.45;;;27.40;99.90;;;;;;1838853;77;21230;-77
2022/10/01 03:11:51;;;;;;;10.50;5.72;;;27.40;99.90;;;;;;1847044;76;21155;-76
2022/10/01 03:14:23;;;;;;;11.83;5.58;;;27.40;99.90;;;;;;1823507;77;21186;-75
2022/10/01 03:16:54;;;;;;;9.15;5.60;;;27.30;99.90;;;;;;1820314;77;21183;-76
2022/10/01 03:19:25;;;;;;;12.78;5.78;;;27.30;99.90;;;;;;1834975;77;21171;-76
2022/10/01 03:21:56;;;;;;;11.20;5.70;;;27.20;99.90;;;;;;1835786;78;21635;-76
2022/10/01 03:24:27;;;;;;;9.63;6.05;;;27.20;99.90;;;;;;1822592;76;21107;-76
2022/10/01 03:26:58;;;;;;;9.93;5.87;;;27.10;99.90;;;;;;1828320;77;21137;-76
2022/10/01 03:29:29;;;;;;;9.20;6.20;;;27.00;99.90;;;;;;1824906;76;21139;-77
2022/10/01 03:32:00;;;;;;;9.65;6.50;;;27.00;99.90;;;;;;1825168;78;21119;-76
2022/10/01 03:34:31;;;;;;;9.28;6.67;;;27.00;99.90;;;;;;1820865;78;21554;-76
2022/10/01 03:37:01;;;;;;;6.78;5.62;;;27.10;99.90;;;;;;1817108;78;21118;-75
2022/10/01 03:39:32;;;;;;;9.73;5.67;;;27.30;99.90;;;;;;1826971;77;21205;-76
2022/10/01 03:42:04;;;;;;;7.45;5.37;;;27.50;99.90;;;;;;1829647;76;21868;-75
2022/10/01 03:44:35;;;;;;;9.08;6.05;;;27.70;99.90;;;;;;1816484;78;21257;-74
2022/10/01 03:47:06;;;;;;;7.33;5.17;;;27.90;99.90;;;;;;1834289;77;21139;-75
2022/10/01 03:49:37;;;;;;;6.47;4.85;;;28.00;99.90;;;;;;1817372;76;21718;-76
2022/10/01 03:52:08;;;;;;;11.20;5.78;;;28.10;99.90;;;;;;1834208;76;21132;-74
2022/10/01 03:54:39;;;;;;;12.30;5.97;;;28.20;99.90;;;;;;1841847;76;21257;-76
2022/10/01 03:57:09;;;;;;;9.68;5.35;;;28.30;99.90;;;;;;1850992;76;21629;-75
2022/10/01 03:59:41;;;;;;;9.33;5.22;;;28.50;99.90;;;;;;1819839;77;21617;-75
2022/10/01 04:02:12;;;;;;;7.50;5.65;;;28.70;99.90;;;;;;1825506;77;21233;-75
2022/10/01 04:04:43;;;;;;;7.70;5.22;;;28.70;99.90;;;;;;1826405;76;21104;-74
2022/10/01 04:07:13;;;;;;;8.23;5.70;;;28.80;99.90;;;;;;1813240;78;21154;-75
2022/10/01 04:09:45;;;;;;;7.08;5.05;;;28.80;99.90;;;;;;1812407;79;21730;-74
2022/10/01 04:12:16;;;;;;;7.12;4.87;;;28.80;99.90;;;;;;1815023;77;21660;-75
2022/10/01 04:14:47;;;;;;;7.53;5.00;;;28.80;99.90;;;;;;1819294;77;21101;-73
2022/10/01 04:17:18;;;;;;;6.75;5.00;;;29.00;99.90;;;;;;1813984;78;21187;-73
2022/10/01 04:19:48;;;;;;;7.53;5.00;;;29.10;99.90;;;;;;1835703;78;21124;-73
2022/10/01 04:22:19;;;;;;;10.90;5.37;;;29.20;99.90;;;;;;1829062;78;21164;-75
2022/10/01 04:24:51;;;;;;;8.63;5.28;;;29.20;99.90;;;;;;1833272;77;21080;-74
2022/10/01 04:27:21;;;;;;;7.60;5.47;;;29.10;99.90;;;;;;1829032;78;21134;-74
2022/10/01 04:29:52;;;;;;;8.48;5.10;;;29.10;99.90;;;;;;1819905;77;21093;-75
2022/10/01 04:32:23;;;;;;;8.30;4.90;;;29.10;99.90;;;;;;1831717;76;21128;-74
2022/10/01 04:34:54;;;;;;;7.87;4.15;;;29.20;99.90;;;;;;1806420;77;21626;-74
2022/10/01 04:37:27;;;;;;;8.58;5.05;;;29.20;99.90;;;;;;1784285;79;21083;-74
2022/10/01 04:39:58;;;;;;;8.25;4.58;;;29.10;99.90;;;;;;1784458;78;21145;-74
2022/10/01 04:42:28;;;;;;;7.33;5.00;;;29.20;99.90;;;;;;1799111;78;21135;-74
2022/10/01 04:44:59;;;;;;;7.20;4.83;;;29.30;99.90;;;;;;1814329;79;21605;-74
2022/10/01 04:47:30;;;;;;;5.72;4.53;;;29.30;99.90;;;;;;1817890;77;21237;-74
2022/10/01 04:50:03;;;;;;;9.75;5.72;;;29.30;99.90;;;;;;1817708;77;21133;-75
2022/10/01 04:52:34;;;;;;;6.95;4.12;;;29.30;99.90;;;;;;1800873;77;21067;-75
2022/10/01 04:55:05;;;;;;;6.17;4.40;;;29.40;99.90;;;;;;1792723;78;21219;-74
2022/10/01 04:57:38;;;;;;;8.55;4.60;;;29.50;99.90;;;;;;1811880;78;21229;-74
2022/10/01 05:00:11;;;;;;;8.43;4.55;;;29.60;99.90;;;;;;1864827;75;21151;-75
2022/10/01 05:02:44;;;;;;;6.60;4.58;;;29.60;99.90;;;;;;1795943;76;21257;-74
2022/10/01 05:05:17;;;;;;;6.05;4.10;;;29.70;99.90;;;;;;1808302;78;21652;-74
2022/10/01 05:07:48;;;;;;;12.03;4.42;;;29.80;99.90;;;;;;1845433;76;21170;-74
2022/10/01 05:10:21;;;;;;;6.05;3.85;;;30.00;99.90;;;;;;1830233;77;21081;-74
2022/10/01 05:12:52;;;;;;;6.03;4.10;;;30.00;99.90;;;;;;1830531;76;21096;-74
2022/10/01 05:15:23;;;;;;;8.40;4.50;;;30.10;99.90;;;;;;1832517;77;21107;-74
2022/10/01 05:17:54;;;;;;;5.90;4.12;;;30.20;99.90;;;;;;1846899;77;21682;-74
2022/10/01 05:20:27;;;;;;;6.12;3.77;;;30.30;99.90;;;;;;1834822;77;21576;-74
2022/10/01 05:22:59;;;;;;;6.12;4.50;;;30.30;99.90;;;;;;1815605;77;21528;-74
2022/10/01 05:25:29;;;;;;;5.22;4.60;;;30.20;99.90;;;;;;1826015;77;21152;-73
2022/10/01 05:28:04;;;;;;;8.65;4.58;;;30.20;99.90;;;;;;1833220;77;21087;-74
2022/10/01 05:30:34;;;;;;;6.30;4.53;;;30.30;99.90;;;;;;1834061;77;21574;-74
2022/10/01 05:33:06;;;;;;;7.75;4.42;;;30.30;99.90;;;;;;1851068;76;21664;-73
2022/10/01 05:35:36;;;;;;;7.75;4.28;;;30.30;99.90;;;;;;1844656;78;21087;-73
2022/10/01 05:38:08;;;;;;;4.90;4.10;;;30.40;99.90;;;;;;1841666;76;21544;-73
2022/10/01 05:40:39;;;;;;;7.95;4.75;;;30.40;99.90;;;;;;1844626;77;21156;-73
2022/10/01 05:43:10;;;;;;;7.15;4.80;;;30.40;99.90;;;;;;1841666;78;21555;-74
2022/10/01 05:45:42;;;;;;;8.23;5.10;;;30.40;99.90;;;;;;1830984;78;21131;-73
2022/10/01 05:48:13;;;;;;;6.90;4.65;;;30.30;99.90;;;;;;1776803;78;21562;-73
2022/10/01 05:50:45;;;;;;;7.85;4.58;;;30.20;99.90;;;;;;1811136;79;21681;-73
2022/10/01 05:53:16;;;;;;;6.20;4.58;;;30.20;99.90;;;;;;1817033;78;21087;-73
2022/10/01 05:55:46;;;;;;;6.58;4.28;;;30.10;99.90;;;;;;1844104;77;21139;-74
2022/10/01 05:58:17;;;;;;;6.92;4.42;;;30.00;99.90;;;;;;1867529;76;21099;-74
2022/10/01 06:00:48;;;;;;;7.58;4.35;;;29.80;99.90;;;;;;1828710;76;21064;-74
2022/10/01 06:03:19;;;;;;;8.63;4.47;;;29.80;99.90;;;;;;1837986;78;21520;-74
2022/10/01 06:05:52;;;;;;;5.95;4.37;;;29.70;99.90;;;;;;1821702;77;21143;-75
2022/10/01 06:08:23;;;;;;;6.75;4.67;;;29.60;99.90;;;;;;1818264;77;21657;-74
2022/10/01 06:10:56;;;;;;;5.72;4.67;;;29.60;99.90;;;;;;1815375;77;21706;-74
2022/10/01 06:13:28;;;;;;;7.47;4.40;;;29.50;99.90;;;;;;1825790;78;21182;-73
2022/10/01 06:15:59;;;;;;;6.17;4.25;;;29.40;99.90;;;;;;1780170;79;21755;-74
2022/10/01 06:18:30;;;;;;;5.87;4.58;;;29.40;99.90;;;;;;1780348;80;21149;-74
2022/10/01 06:21:01;;;;;;;7.95;4.55;;;29.30;99.90;;;;;;1784443;79;21174;-73
2022/10/01 06:23:32;;;;;;;6.95;4.92;;;29.20;99.90;;;;;;1767617;79;21625;-75
2022/10/01 06:26:04;;;;;;;7.17;4.92;;;29.20;99.90;;;;;;1792146;78;21069;-74
2022/10/01 06:28:36;;;;;;;6.35;4.75;;;29.10;99.90;;;;;;1802270;77;21555;-75
2022/10/01 06:31:06;;;;;;;8.33;4.65;;;29.20;99.90;;;;;;1833147;77;21062;-73
2022/10/01 06:33:38;;;;;;;8.50;4.65;;;29.20;99.90;;;;;;1801481;78;21228;-74
2022/10/01 06:36:08;;;;;;;6.80;4.50;;;29.20;99.90;;;;;;1782302;77;21166;-74
2022/10/01 06:38:39;;;;;;;8.83;5.70;;;29.20;99.90;;;;;;1798225;77;21210;-74
2022/10/01 06:41:11;;;;;;;6.83;4.20;;;29.10;99.90;;;;;;1800908;78;21135;-74
2022/10/01 06:43:41;;;;;;;7.62;5.00;;;29.10;99.90;;;;;;1799973;78;21275;-74
2022/10/01 06:46:12;;;;;;;7.25;5.20;;;29.10;99.90;;;;;;1765443;80;21633;-73
2022/10/01 06:48:43;;;;;;;6.92;5.28;;;29.10;99.90;;;;;;1767622;78;21705;-73
2022/10/01 06:51:14;;;;;;;6.42;4.60;;;29.00;99.90;;;;;;1770992;78;21668;-72
2022/10/01 06:53:45;;;;;;;8.65;5.37;;;29.00;99.90;;;;;;1789016;78;21147;-72
2022/10/01 06:56:15;;;;;;;6.37;4.78;;;29.00;99.90;;;;;;1783808;79;21256;-72
2022/10/01 06:58:47;;;;;;;6.78;4.70;;;28.90;99.90;;;;;;1780791;79;21783;-73
2022/10/01 07:01:19;;;;;;;8.50;6.10;;;29.00;99.90;;;;;;1783454;80;21163;-72
2022/10/01 07:03:52;;;;;;;8.08;5.92;;;28.90;99.90;;;;;;1770609;80;21207;-73
2022/10/01 07:06:22;;;;;;;7.08;5.17;;;28.90;99.90;;;;;;1788102;78;21115;-75
2022/10/01 07:08:52;;;;;;;11.43;4.87;;;29.00;99.90;;;;;;1781676;79;21206;-75
2022/10/01 07:11:24;;;;;;;10.60;5.50;;;29.00;99.90;;;;;;1790153;78;21129;-75
2022/10/01 07:13:56;;;;;;;7.45;5.15;;;29.10;99.90;;;;;;1795088;78;21307;-73
2022/10/01 07:16:26;;;;;;;8.53;5.67;;;29.10;99.90;;;;;;1824931;76;21693;-74
2022/10/01 07:18:57;;;;;;;7.55;5.47;;;29.10;99.90;;;;;;1813903;79;21084;-74
2022/10/01 07:21:27;;;;;;;8.18;4.65;;;29.10;99.90;;;;;;1840707;77;21365;-75
2022/10/01 07:23:59;;;;;;;5.20;4.25;;;29.10;99.90;;;;;;1842772;77;21901;-75
2022/10/01 07:26:30;;;;;;;5.83;3.83;;;29.10;99.90;;;;;;1836760;77;21532;-74
2022/10/01 07:29:10;;;;;;;5.50;4.05;;;29.10;99.90;;;;;;1810210;79;21089;-74
2022/10/01 07:31:41;;;;;;;5.28;3.87;;;29.10;99.90;;;;;;1833154;77;21199;-74
2022/10/01 07:34:11;;;;;;;8.65;4.03;;;29.10;99.90;;;;;;1846483;77;21647;-74
2022/10/01 07:36:44;;;;;;;8.40;5.08;;;29.00;99.90;;;;;;1853917;76;21214;-74
2022/10/01 07:39:14;;;;;;;7.30;4.45;;;29.00;99.90;;;;;;1846696;76;21132;-74
2022/10/01 07:41:45;;;;;;;6.22;3.83;;;29.00;99.90;;;;;;1794997;79;21166;-74
2022/10/01 07:44:17;;;;;;;5.80;4.10;;;29.00;99.90;;;;;;1835599;77;21639;-75
2022/10/01 07:46:48;;;;;;;5.85;4.20;;;28.90;99.90;;;;;;1804693;79;21097;-74
2022/10/01 07:49:19;;;;;;;6.10;4.33;;;28.80;99.90;;;;;;1840761;77;21622;-75
2022/10/01 07:51:50;;;;;;;4.70;4.00;;;28.80;99.90;;;;;;1811390;77;21540;-75
2022/10/01 07:54:22;;;;;;;5.95;4.30;;;28.70;99.90;;;;;;1823331;76;21510;-75
2022/10/01 07:56:54;;;;;;;5.60;4.37;;;28.60;99.90;;;;;;1831091;76;21102;-75
2022/10/01 07:59:26;;;;;;;5.97;4.10;;;28.50;99.90;;;;;;1828288;78;21499;-75
2022/10/01 08:01:58;;;;;;;5.85;4.55;;;28.40;99.90;;;;;;1843444;76;21225;-75
2022/10/01 08:07:02;;;;;;;6.03;3.87;;;28.20;99.90;;;;;;1845647;76;21682;-75
2022/10/01 08:09:32;;;;;;;5.60;4.22;;;28.20;99.90;;;;;;1807941;78;21148;-75
2022/10/01 08:12:03;;;;;;;7.90;3.92;;;28.10;99.90;;;;;;1832915;77;21644;-74
2022/10/01 08:14:34;;;;;;;5.17;3.65;;;28.00;99.90;;;;;;1854580;76;21155;-75
2022/10/01 08:17:05;;;;;;;6.35;3.25;;;28.00;99.90;;;;;;1849411;76;21665;-74
2022/10/01 08:19:36;;;;;;;5.67;3.60;;;28.00;99.90;;;;;;1824496;78;21641;-75
2022/10/01 08:22:07;;;;;;;5.58;3.40;;;28.00;99.90;;;;;;1836398;78;21172;-74
2022/10/01 08:24:38;;;;;;;5.42;3.20;;;28.00;99.90;;;;;;1814762;78;21172;-75
2022/10/01 08:27:09;;;;;;;4.70;3.45;;;28.00;99.90;;;;;;1834976;76;21072;-76
2022/10/01 08:29:42;;;;;;;5.22;3.77;;;28.00;99.90;;;;;;1833439;76;21214;-76
2022/10/01 08:32:13;;;;;;;5.95;3.83;;;27.90;99.90;;;;;;1819906;77;21666;-76
2022/10/01 08:34:45;;;;;;;6.28;3.60;;;27.90;99.90;;;;;;1826497;76;21780;-75
2022/10/01 08:37:16;;;;;;;5.08;3.35;;;27.90;99.90;;;;;;1834630;76;21224;-74
2022/10/01 08:39:47;;;;;;;5.33;2.70;;;27.80;99.90;;;;;;1829877;76;21285;-75
2022/10/01 08:42:21;;;;;;;4.65;2.95;;;27.80;99.90;;;;;;1848103;75;21112;-75
2022/10/01 08:44:53;;;;;;;4.10;3.17;;;27.70;99.90;;;;;;1864016;75;21591;-75
2022/10/01 08:47:26;;;;;;;6.72;3.77;;;27.70;99.90;;;;;;1856962;75;21104;-75
2022/10/01 08:49:59;;;;;;;4.87;3.15;;;27.60;99.90;;;;;;1833234;77;21123;-76
2022/10/01 08:52:32;;;;;;;5.03;3.47;;;27.60;99.90;;;;;;1833583;77;21709;-74
2022/10/01 08:55:08;;;;;;;5.80;3.52;;;27.50;99.90;;;;;;1823581;76;21697;-74
2022/10/01 08:57:42;;;;;;;5.65;3.40;;;27.50;99.90;;;;;;1838823;76;21741;-75
2022/10/01 09:00:15;;;;;;;6.22;3.77;;;27.50;99.90;;;;;;1815985;77;21128;-76
2022/10/01 09:02:48;;;;;;;5.00;3.22;;;27.50;99.90;;;;;;1816854;77;21234;-74
2022/10/01 09:05:42;;;;;;;7.25;3.77;;;27.50;99.90;;;;;;1817100;76;21305;-75
2022/10/01 09:08:15;;;;;;;9.90;5.53;;;27.50;99.90;;;;;;1829979;76;21749;-75
2022/10/01 09:10:48;;;;;;;7.10;3.98;;;27.50;99.90;;;;;;1826973;76;21165;-74
2022/10/01 09:13:20;;;;;;;11.30;4.08;;;27.50;99.90;;;;;;1836082;76;21627;-76
2022/10/01 09:15:53;;;;;;;4.15;3.27;;;27.40;99.90;;;;;;1831854;76;21155;-75
2022/10/01 09:18:27;;;;;;;7.12;4.22;;;27.40;99.90;;;;;;1835717;76;21835;-77
2022/10/01 09:20:59;;;;;;;4.30;3.52;;;27.40;99.90;;;;;;1822014;77;21206;-76
2022/10/01 09:23:32;;;;;;;6.45;3.47;;;27.40;99.90;;;;;;1860715;76;21663;-76
2022/10/01 09:26:03;;;;;;;6.40;4.28;;;27.40;99.90;;;;;;1863138;76;21552;-76
2022/10/01 09:28:37;;;;;;;4.47;3.95;;;27.40;99.90;;;;;;1856356;76;21904;-76
2022/10/01 09:31:08;;;;;;;5.70;4.08;;;27.40;99.90;;;;;;1821906;77;21151;-74
2022/10/01 09:33:41;;;;;;;6.15;4.08;;;27.40;99.90;;;;;;1837007;76;21167;-74
2022/10/01 09:36:13;;;;;;;6.25;3.75;;;27.40;99.90;;;;;;1828984;77;21143;-74
2022/10/01 09:38:46;;;;;;;9.15;4.55;;;27.40;99.90;;;;;;1833753;76;21701;-74
2022/10/01 09:41:18;;;;;;;7.47;4.25;;;27.40;99.90;;;;;;1833817;77;21658;-74
2022/10/01 09:43:49;;;;;;;5.47;3.67;;;27.40;99.90;;;;;;1799128;79;21638;-76
2022/10/01 09:46:20;;;;;;;6.25;3.90;;;27.40;99.90;;;;;;1804051;78;21147;-75
2022/10/01 09:48:53;;;;;;;6.20;4.00;;;27.40;99.90;;;;;;1812153;78;21115;-74
2022/10/01 09:51:26;;;;;;;6.42;4.08;;;27.40;99.90;;;;;;1846808;75;21594;-74
2022/10/01 09:54:00;;;;;;;5.92;4.37;;;27.40;99.90;;;;;;1813399;77;21152;-75
2022/10/01 09:56:33;;;;;;;9.40;5.42;;;27.50;99.90;;;;;;1827607;76;21080;-75
2022/10/01 09:59:07;;;;;;;9.88;6.50;;;27.40;99.90;;;;;;1831667;77;21199;-75
2022/10/01 10:01:42;;;;;;;8.98;6.55;;;27.50;99.90;;;;;;1864043;76;21151;-75
2022/10/01 10:04:14;;;;;;;8.18;4.83;;;27.50;99.90;;;;;;1849879;76;21154;-75
2022/10/01 10:06:47;;;;;;;5.85;4.30;;;27.50;99.90;;;;;;1815773;78;21278;-75
2022/10/01 10:09:21;;;;;;;5.55;3.95;;;27.50;99.90;;;;;;1849682;77;21647;-75
2022/10/01 10:11:55;;;;;;;7.60;4.83;;;27.50;99.90;;;;;;1831231;78;21128;-74
2022/10/01 10:14:27;;;;;;;9.13;5.25;;;27.60;99.90;;;;;;1819750;77;21142;-74
2022/10/01 10:17:03;;;;;;;7.30;4.90;;;27.60;99.90;;;;;;1816664;77;21127;-74
2022/10/01 10:19:32;;;;;;;5.67;4.17;;;27.60;99.90;;;;;;1811753;78;21686;-74
2022/10/01 10:22:05;;;;;;;6.45;4.55;;;27.60;99.90;;;;;;1804291;78;21592;-75
2022/10/01 10:24:37;;;;;;;8.25;4.65;;;27.60;99.90;;;;;;1791407;78;21146;-74
2022/10/01 10:27:10;;;;;;;6.67;4.72;;;27.60;99.90;;;;;;1782640;80;21254;-74
2022/10/01 10:29:41;;;;;;;5.87;4.37;;;27.60;99.90;;;;;;1794144;79;21626;-75
2022/10/01 10:32:14;;;;;;;7.08;4.70;;;27.60;99.90;;;;;;1826096;77;21540;-76
2022/10/01 10:34:46;;;;;;;8.50;4.80;;;27.60;99.90;;;;;;1832640;77;21584;-76
2022/10/01 10:37:19;;;;;;;8.35;4.83;;;27.60;99.90;;;;;;1808519;79;21557;-75
2022/10/01 10:39:52;;;;;;;7.12;4.60;;;27.60;99.90;;;;;;1833132;76;21134;-75
2022/10/01 10:42:24;;;;;;;6.33;4.90;;;27.60;99.90;;;;;;1821395;77;21206;-74
2022/10/01 10:44:57;;;;;;;8.18;4.55;;;27.60;99.90;;;;;;1826570;77;21146;-75
2022/10/01 10:47:30;;;;;;;8.28;5.00;;;27.60;99.90;;;;;;1809811;77;22322;-74
2022/10/01 10:50:02;;;;;;;8.35;4.53;;;27.60;99.90;;;;;;1824673;78;21230;-76
2022/10/01 10:52:35;;;;;;;9.68;6.70;;;27.60;99.90;;;;;;1828658;78;21100;-74
2022/10/01 10:55:09;;;;;;;13.48;7.22;;;27.60;99.90;;;;;;1790596;78;21138;-74
2022/10/01 10:57:39;;;;;;;10.65;6.67;;;27.50;99.90;;;;;;1783989;79;21540;-75
2022/10/01 11:00:11;;;;;;;10.15;6.40;;;27.50;99.90;;;;;;1813566;78;21167;-76
2022/10/01 11:02:44;;;;;;;8.43;5.70;;;27.50;99.90;;;;;;1820468;77;21280;-75
2022/10/01 11:05:18;;;;;;;10.38;6.30;;;27.60;99.90;;;;;;1813696;76;21600;-75
2022/10/01 11:07:51;;;;;;;9.73;6.05;;;27.50;99.90;;;;;;1820401;78;21108;-75
2022/10/01 11:10:22;;;;;;;11.05;5.78;;;27.50;99.90;;;;;;1813877;78;21175;-73
2022/10/01 11:12:56;;;;;;;11.85;6.45;;;27.50;99.90;;;;;;1837679;76;21752;-75
2022/10/01 11:15:29;;;;;;;8.10;5.55;;;27.50;99.90;;;;;;1798164;77;21096;-75
2022/10/01 11:18:03;;;;;;;8.53;6.15;;;27.50;99.90;;;;;;1810357;76;21546;-76
2022/10/01 11:20:36;;;;;;;9.43;6.35;;;27.40;99.90;;;;;;1800343;78;21563;-75
2022/10/01 11:23:09;;;;;;;8.83;6.22;;;27.40;99.90;;;;;;1824755;76;21070;-75
2022/10/01 11:25:42;;;;;;;12.13;6.22;;;27.40;99.90;;;;;;1808517;78;21173;-75
2022/10/01 11:28:15;;;;;;;10.95;6.05;;;27.30;99.90;;;;;;1836587;76;21183;-75
2022/10/01 11:30:48;;;;;;;8.05;5.12;;;27.30;99.90;;;;;;1820242;77;21140;-74
2022/10/01 11:33:21;;;;;;;7.47;5.70;;;27.30;99.90;;;;;;1800123;79;21725;-75
2022/10/01 11:35:54;;;;;;;9.35;6.22;;;27.30;99.90;;;;;;1818632;76;21159;-75
2022/10/01 11:38:27;;;;;;;7.85;5.20;;;27.20;99.90;;;;;;1828748;76;21177;-75
2022/10/01 11:41:00;;;;;;;9.30;5.35;;;27.20;99.90;;;;;;1826840;76;21163;-73
2022/10/01 11:43:33;;;;;;;10.28;6.05;;;27.20;99.90;;;;;;1814983;77;21089;-74
2022/10/01 11:46:06;;;;;;;8.43;5.78;;;27.20;99.90;;;;;;1825004;77;21151;-73
2022/10/01 11:48:39;;;;;;;13.15;6.37;;;27.20;99.90;;;;;;1826117;76;21218;-75
2022/10/01 11:51:13;;;;;;;9.83;6.20;;;27.10;99.90;;;;;;1799776;78;21163;-74
2022/10/01 11:53:46;;;;;;;10.32;6.40;;;27.10;99.90;;;;;;1826391;77;21189;-75
2022/10/01 11:58:56;;;;;;;10.98;5.75;;;27.00;99.90;;;;;;1839858;77;21631;-75
2022/10/01 12:01:27;;;;;;;9.40;5.45;;;27.00;99.90;;;;;;1823734;77;21128;-74
2022/10/01 12:03:56;;;;;;;8.43;5.30;;;27.00;99.90;;;;;;1810814;78;21176;-74
2022/10/01 12:06:28;;;;;;;7.78;5.17;;;27.10;99.90;;;;;;1851433;76;21717;-74
2022/10/01 12:09:03;;;;;;;8.53;5.03;;;27.00;99.90;;;;;;1837170;77;21755;-74
2022/10/01 12:11:36;;;;;;;9.90;5.33;;;27.00;99.90;;;;;;1828079;78;21161;-76
2022/10/01 12:14:09;;;;;;;5.72;4.30;;;27.00;99.90;;;;;;1821251;78;21814;-75
2022/10/01 12:16:43;;;;;;;10.10;3.87;;;27.00;99.90;;;;;;1795315;77;21218;-74
2022/10/01 12:19:16;;;;;;;7.35;4.08;;;27.00;99.90;;;;;;1830725;76;21148;-83
2022/10/01 12:21:50;;;;;;;14.65;12.95;;;27.00;99.90;;;;;;1838966;76;21988;-88
2022/10/01 12:24:23;;;;;;;7.67;4.95;;;27.00;99.90;;;;;;1798707;78;21104;-87
2022/10/01 12:26:56;;;;;;;6.87;4.85;;;27.00;99.90;;;;;;1807960;77;21219;-86
2022/10/01 12:29:35;;;;;;;5.50;3.92;;;27.00;99.90;;;;;;1831144;76;21135;-87
2022/10/01 12:32:08;;;;;;;6.42;4.40;;;27.00;99.90;;;;;;1816257;77;21135;-86
2022/10/01 12:34:41;;;;;;;8.03;4.30;;;27.00;99.90;;;;;;1842164;77;21505;-86
2022/10/01 12:37:11;;;;;;;6.83;4.67;;;26.90;99.90;;;;;;1836777;77;21108;-86
2022/10/01 12:39:43;;;;;;;5.20;3.50;;;26.90;99.90;;;;;;1835558;78;21155;-86
2022/10/01 12:42:14;;;;;;;5.83;3.60;;;26.90;99.90;;;;;;1834770;78;21167;-87
2022/10/01 12:44:48;;;;;;;6.22;3.98;;;26.90;99.90;;;;;;1815259;77;21527;-86
2022/10/01 12:47:33;;;;;;;;;;;;;;;;;;;;;
2022/10/01 12:50:12;;;;;;;5.17;3.10;;;26.90;99.90;;;;;;1813589;76;21247;-86
2022/10/01 12:52:45;;;;;;;6.55;3.85;;;26.90;99.90;;;;;;1809560;77;21124;-86
2022/10/01 12:55:18;;;;;;;6.90;3.83;;;26.80;99.90;;;;;;1851886;76;21179;-86
2022/10/01 12:57:51;;;;;;;10.60;4.12;;;26.80;99.90;;;;;;1850339;77;21174;-86
2022/10/01 13:00:24;;;;;;;6.45;4.17;;;26.80;99.90;;;;;;1844029;77;21135;-85
2022/10/01 13:02:57;;;;;;;6.47;4.25;;;26.80;99.90;;;;;;1832089;76;21125;-84
2022/10/01 13:05:30;;;;;;;9.28;4.17;;;26.80;99.90;;;;;;1843963;76;21262;-86
2022/10/01 13:08:02;;;;;;;8.30;3.92;;;26.80;99.90;;;;;;1806755;79;21132;-86
2022/10/01 13:10:35;;;;;;;6.95;3.83;;;26.80;99.90;;;;;;1828182;76;21068;-86
2022/10/01 13:13:09;;;;;;;6.37;3.92;;;26.80;99.90;;;;;;1813335;77;21120;-85
2022/10/01 13:15:42;;;;;;;8.03;4.40;;;26.80;99.90;;;;;;1810516;77;21254;-86
2022/10/01 13:18:15;;;;;;;6.22;3.92;;;26.80;99.90;;;;;;1849437;76;21097;-86